Terminal Aerodrome Forecast
Issued by NWS Sterling, VA

Current Version | Previous Version | Graphics & Text | Print | Product List | Glossary On
Versions: 1 2 3 4 5 6 7 8 9 10 11 12 13 14 15 16
916
FTUS41 KLWX 111732
TAFMRB
TAF
KMRB 111732Z 1118/1218 28017G28KT P6SM BKN045
     FM120000 29009KT P6SM SCT250
     FM120600 28005KT P6SM FEW150
     FM121100 22004KT P6SM BKN120=

USA.gov is the U.S. government's official web portal to all federal, state and local government web resources and services.